mibebeyyo.com alexa rank chart, mibebeyyo.com alexa rank daily changes

mibebeyyo.com alexa rank chart, mibebeyyo.com alexa rank daily changes

mibebeyyo.com
Actual rank:
26 826

RANK HISTORY

Date Rank Diff
2018/04/19 26 826 -1 940
2018/04/18 28 766 -17 074
2018/04/17 45 840 -37 869
2018/04/16 83 709 +51 874
2018/04/15 31 835 -16 400
2018/04/14 48 235 +14 275
2018/04/13 33 960 +4 450
2018/04/12 29 510 -75
2018/04/11 29 585 -19 942
2018/04/10 49 527 +15 712
2018/04/09 33 815 -2 378
2018/04/08 36 193 -181
2018/04/07 36 374 +6 275
2018/04/06 30 099 -776
2018/04/05 30 875 +2 948
2018/04/04 27 927 -4 692
2018/04/03 32 619 -15 187
2018/04/02 47 806 +4 727
2018/04/01 43 079 -8 912
2018/03/31 51 991 +9 283
2018/03/30 42 708 +10 567
2018/03/29 32 141 -753
2018/03/28 32 894 -22 818
2018/03/27 55 712 +9 456
2018/03/26 46 256 -2 779
2018/03/25 49 035 +11 849
2018/03/24 37 186 +4 515
2018/03/23 32 671 -957
2018/03/22 33 628 +3 246
2018/03/21 30 382 -18 695
2018/03/20 49 077 -15 765
2018/03/19 64 842 -3 931
2018/03/18 68 773 +32 500
2018/03/17 36 273 -8 527
2018/03/16 44 800 +9 698
2018/03/15 35 102 -4 028
2018/03/14 39 130 -7 937
2018/03/13 47 067 +579
2018/03/12 46 488 +2 289
2018/03/11 44 199 +1 805
2018/03/10 42 394 -9 015
2018/03/09 51 409 +14 580
2018/03/08 36 829 -4 056
2018/03/07 40 885 -3 774
2018/03/06 44 659 +9 698
2018/03/05 34 961 -18 535
2018/03/04 53 496 +7 743
2018/03/03 45 753 +9 702
2018/03/02 36 051 +1 455
2018/03/01 34 596 -10 873
2018/02/28 45 469 -16 918
2018/02/27 62 387 +26 273
2018/02/26 36 114 +1 608
2018/02/25 34 506 -8 273
2018/02/24 42 779 -3 436
2018/02/23 46 215 +11 690
2018/02/22 34 525 +607
2018/02/21 33 918 -6 104
2018/02/20 40 022 -30 174
2018/02/19 70 196 +32 358
2018/02/18 37 838

WIDGET FOR YOUR SITE

DOMAINS WITH THE NEAREST RANK

Domain Rank
univ-rennes1.fr 26 821
ru-porno.tv 26 822
momondo.de 26 823
hlamer.ru 26 824
ocr.org.uk 26 825
mibebeyyo.com 26 826
cpfl.com.br 26 827
netvigator.com 26 828
ifortuna.sk 26 829
foreseeresults.com 26 830
bithumen.be 26 831

DOMAINS WITH THE NEAREST RANK BY TLD .com

Domain Rank
al-jazirah.com 26 813
yakuhd.com 26 814
amateurpicpost.com 26 815
pushsquare.com 26 816
humankinetics.com 26 819
mibebeyyo.com 26 826
netvigator.com 26 828
foreseeresults.com 26 830
codehs.com 26 835
dolby.com 26 841
efax.com 26 844